createdAt,value
2019-04-03T00:00:40.611Z,60.45
2019-04-03T00:03:10.178Z,60.64
2019-04-03T00:05:39.708Z,61.26
2019-04-03T00:08:09.201Z,61.18
2019-04-03T00:10:38.629Z,61.44
2019-04-03T00:13:10.460Z,61.78
2019-04-03T00:15:39.450Z,62.07
2019-04-03T00:18:08.884Z,62.69
2019-04-03T00:20:38.585Z,62.97
2019-04-03T00:23:08.117Z,62.72
2019-04-03T00:25:37.659Z,63.15
2019-04-03T00:28:07.232Z,63.31
2019-04-03T00:30:36.938Z,63.14
2019-04-03T00:33:06.421Z,63.42
2019-04-03T00:35:35.997Z,63.71
2019-04-03T00:38:05.555Z,63.42
2019-04-03T00:40:35.005Z,63.41
2019-04-03T00:43:04.887Z,63.40
2019-04-03T00:45:34.460Z,63.37
2019-04-03T00:48:03.913Z,63.45
2019-04-03T00:50:33.432Z,63.71
2019-04-03T00:53:03.075Z,64.07
2019-04-03T00:55:32.531Z,64.38
2019-04-03T00:58:02.085Z,64.15
2019-04-03T01:00:31.638Z,64.13
2019-04-03T01:03:01.116Z,64.18
2019-04-03T01:05:30.603Z,64.20
2019-04-03T01:08:00.230Z,64.27
2019-04-03T01:10:30.292Z,64.33
2019-04-03T01:13:01.754Z,64.78
2019-04-03T01:15:32.103Z,64.58
2019-04-03T01:18:04.623Z,64.82
2019-04-03T01:20:32.999Z,64.82
2019-04-03T01:23:02.631Z,65.24
2019-04-03T01:25:32.251Z,64.76
2019-04-03T01:28:01.816Z,64.12
2019-04-03T01:30:31.386Z,64.15
2019-04-03T01:33:01.083Z,64.48
2019-04-03T01:35:30.619Z,64.13
2019-04-03T01:38:00.051Z,64.00
2019-04-03T01:40:30.694Z,63.70
2019-04-03T01:43:00.181Z,64.22
2019-04-03T01:45:29.664Z,63.92
2019-04-03T01:47:59.170Z,64.19
2019-04-03T01:50:30.266Z,64.09
2019-04-03T01:53:01.766Z,64.02
2019-04-03T01:55:31.014Z,63.93
2019-04-03T01:58:00.505Z,63.76
2019-04-03T02:00:49.456Z,64.28
2019-04-03T02:03:18.934Z,64.33
2019-04-03T02:05:48.501Z,64.16
2019-04-03T02:08:18.124Z,64.21
2019-04-03T02:10:48.936Z,64.32
2019-04-03T02:13:21.140Z,64.40
2019-04-03T02:15:52.227Z,64.05
2019-04-03T02:18:21.102Z,63.99
2019-04-03T02:20:50.571Z,63.98
2019-04-03T02:23:20.037Z,64.18
2019-04-03T02:25:49.523Z,64.30
2019-04-03T02:28:18.978Z,64.62
2019-04-03T02:30:48.451Z,64.47
2019-04-03T02:33:18.114Z,64.47
2019-04-03T02:35:47.647Z,64.43
2019-04-03T02:38:17.133Z,64.50
2019-04-03T02:40:46.648Z,63.71
2019-04-03T02:43:16.117Z,63.82
2019-04-03T02:45:45.649Z,63.51
2019-04-03T02:48:15.213Z,64.22
2019-04-03T02:50:47.549Z,64.07
2019-04-03T02:53:16.501Z,63.41
2019-04-03T02:55:46.201Z,62.67
2019-04-03T02:58:16.267Z,63.42
2019-04-03T03:00:45.744Z,62.63
2019-04-03T03:03:17.230Z,63.53
2019-04-03T03:05:46.449Z,63.18
2019-04-03T03:08:17.146Z,63.13
2019-04-03T03:10:48.893Z,62.85
2019-04-03T03:13:19.670Z,63.26
2019-04-03T03:15:51.093Z,64.12
2019-04-03T03:18:20.722Z,64.24
2019-04-03T03:20:51.176Z,64.02
2019-04-03T03:23:23.361Z,63.82
2019-04-03T03:25:52.773Z,63.71
2019-04-03T03:28:22.560Z,63.97
2019-04-03T03:30:59.692Z,63.65
2019-04-03T03:33:32.687Z,63.34
2019-04-03T03:35:55.960Z,63.55
2019-04-03T03:38:28.323Z,63.87
2019-04-03T03:41:22.099Z,64.36
2019-04-03T03:43:49.177Z,64.30
2019-04-03T03:46:19.072Z,64.21
2019-04-03T03:48:49.124Z,63.59
2019-04-03T03:51:19.980Z,62.90
2019-04-03T03:53:50.219Z,61.67
2019-04-03T03:56:21.016Z,61.17
2019-04-03T03:58:51.996Z,61.30
2019-04-03T04:01:21.637Z,59.73
2019-04-03T04:03:51.098Z,61.04
2019-04-03T04:06:21.439Z,59.53
2019-04-03T04:08:51.707Z,60.83
2019-04-03T04:11:21.248Z,59.80
2019-04-03T04:13:51.194Z,59.44
2019-04-03T04:16:21.170Z,59.41
2019-04-03T04:18:51.016Z,60.01
2019-04-03T04:21:21.348Z,59.63
2019-04-03T04:23:51.019Z,58.47
2019-04-03T04:26:21.653Z,58.73
2019-04-03T04:28:51.279Z,58.35
2019-04-03T04:31:20.768Z,58.80
2019-04-03T04:33:50.223Z,58.80
2019-04-03T04:36:19.716Z,59.04
2019-04-03T04:38:49.265Z,58.88
2019-04-03T04:41:18.726Z,58.57
2019-04-03T04:43:48.237Z,60.83
2019-04-03T04:46:17.787Z,60.19
2019-04-03T04:48:47.421Z,59.51
2019-04-03T04:51:16.878Z,59.12
2019-04-03T04:53:46.448Z,59.32
2019-04-03T04:56:15.899Z,60.51
2019-04-03T04:58:45.381Z,60.61
2019-04-03T05:01:17.130Z,61.09
2019-04-03T05:03:46.253Z,61.54
2019-04-03T05:06:15.831Z,59.95
2019-04-03T05:08:45.307Z,59.85
2019-04-03T05:11:16.130Z,61.37
2019-04-03T05:13:46.781Z,61.81
2019-04-03T05:16:19.567Z,61.79
2019-04-03T05:18:48.335Z,62.11
2019-04-03T05:21:17.949Z,62.47
2019-04-03T05:23:47.616Z,62.60
2019-04-03T05:26:17.076Z,63.18
2019-04-03T05:28:54.587Z,63.18
2019-04-03T05:31:17.907Z,63.33
2019-04-03T05:33:47.490Z,63.62
2019-04-03T05:36:17.712Z,63.83
2019-04-03T05:38:47.824Z,63.76
2019-04-03T05:41:17.363Z,63.72
2019-04-03T05:43:46.839Z,63.80
2019-04-03T05:46:19.091Z,63.70
2019-04-03T05:48:48.578Z,64.00
2019-04-03T05:51:18.166Z,64.07
2019-04-03T05:53:47.859Z,64.12
2019-04-03T05:56:17.366Z,64.34
2019-04-03T05:58:55.376Z,64.20
2019-04-03T06:01:18.211Z,64.17
2019-04-03T06:03:47.647Z,64.16
2019-04-03T06:06:17.308Z,63.90
2019-04-03T06:08:46.874Z,64.04
2019-04-03T06:11:16.538Z,64.14
2019-04-03T06:13:48.055Z,64.31
2019-04-03T06:16:17.354Z,64.55
2019-04-03T06:18:47.642Z,64.09
2019-04-03T06:21:17.898Z,64.66
2019-04-03T06:23:47.524Z,63.10
2019-04-03T06:26:16.972Z,63.66
2019-04-03T06:28:47.734Z,63.96
2019-04-03T06:31:17.420Z,63.32
2019-04-03T06:33:47.015Z,61.31
2019-04-03T06:36:17.202Z,63.01
2019-04-03T06:38:47.838Z,63.25
2019-04-03T06:41:17.348Z,63.88
2019-04-03T06:43:49.443Z,64.49
2019-04-03T06:46:18.134Z,64.33
2019-04-03T06:48:47.646Z,64.73
2019-04-03T06:51:17.181Z,64.61
2019-04-03T06:53:46.684Z,64.86
2019-04-03T06:56:16.206Z,65.02
2019-04-03T06:58:45.913Z,65.16
2019-04-03T07:01:15.523Z,65.31
2019-04-03T07:03:44.988Z,65.29
2019-04-03T07:06:14.730Z,65.43
2019-04-03T07:08:44.288Z,65.12
2019-04-03T07:11:23.365Z,65.06
2019-04-03T07:13:44.972Z,64.58
2019-04-03T07:16:14.530Z,64.86
2019-04-03T07:18:44.092Z,64.60
2019-04-03T07:21:13.791Z,64.66
2019-04-03T07:23:43.377Z,64.91
2019-04-03T07:26:12.832Z,65.01
2019-04-03T07:28:42.467Z,65.24
2019-04-03T07:31:12.041Z,65.37
2019-04-03T07:33:41.530Z,65.37
2019-04-03T07:36:30.435Z,65.37
2019-04-03T07:38:59.918Z,65.30
2019-04-03T07:41:29.479Z,65.23
2019-04-03T07:43:59.336Z,65.35
2019-04-03T07:46:28.846Z,65.92
2019-04-03T07:49:00.315Z,65.47
2019-04-03T07:51:29.614Z,65.37
2019-04-03T07:53:59.100Z,65.53
2019-04-03T07:56:28.986Z,65.85
2019-04-03T07:58:58.438Z,65.80
2019-04-03T08:01:27.911Z,65.70
2019-04-03T08:03:57.418Z,64.53
2019-04-03T08:06:26.864Z,64.98
2019-04-03T08:09:07.993Z,65.20
2019-04-03T08:11:27.571Z,65.43
2019-04-03T08:13:57.008Z,64.87
2019-04-03T08:16:26.526Z,64.65
2019-04-03T08:18:55.963Z,64.78
2019-04-03T08:21:25.461Z,64.49
2019-04-03T08:23:55.081Z,64.53
2019-04-03T08:26:26.670Z,64.62
2019-04-03T08:28:56.105Z,64.53
2019-04-03T08:31:25.543Z,64.70
2019-04-03T08:33:55.269Z,64.51
2019-04-03T08:36:26.385Z,64.90
2019-04-03T08:38:56.207Z,64.79
2019-04-03T08:41:25.696Z,65.25
2019-04-03T08:43:55.181Z,65.17
2019-04-03T08:46:24.914Z,65.06
2019-04-03T08:48:55.457Z,65.13
2019-04-03T08:51:25.205Z,64.00
2019-04-03T08:53:54.951Z,64.32
2019-04-03T08:56:24.433Z,64.33
2019-04-03T08:58:56.524Z,64.16
2019-04-03T09:01:25.092Z,64.25
2019-04-03T09:03:54.746Z,63.14
2019-04-03T09:06:24.204Z,63.53
2019-04-03T09:08:53.773Z,64.29
2019-04-03T09:11:23.308Z,64.85
2019-04-03T09:13:54.869Z,63.74
2019-04-03T09:16:24.070Z,64.26
2019-04-03T09:18:53.588Z,63.80
2019-04-03T09:21:23.027Z,62.60
2019-04-03T09:23:52.555Z,62.06
2019-04-03T09:26:22.121Z,61.87
2019-04-03T09:28:51.578Z,61.91
2019-04-03T09:31:21.073Z,60.47
2019-04-03T09:33:50.531Z,60.74
2019-04-03T09:36:20.029Z,60.95
2019-04-03T09:38:49.772Z,59.84
2019-04-03T09:41:20.144Z,60.64
2019-04-03T09:43:49.757Z,61.36
2019-04-03T09:46:19.245Z,60.89
2019-04-03T09:48:48.972Z,60.55
2019-04-03T09:51:21.648Z,60.50
2019-04-03T09:53:49.587Z,60.42
2019-04-03T09:56:19.050Z,58.34
2019-04-03T09:58:48.534Z,59.05
2019-04-03T10:01:18.934Z,59.75
2019-04-03T10:03:48.532Z,59.62
2019-04-03T10:06:18.019Z,60.16
2019-04-03T10:08:47.508Z,60.92
2019-04-03T10:11:19.604Z,59.94
2019-04-03T10:13:48.208Z,60.97
2019-04-03T10:16:17.783Z,59.62
2019-04-03T10:18:47.351Z,60.06
2019-04-03T10:21:17.768Z,58.81
2019-04-03T10:23:48.103Z,58.39
2019-04-03T10:26:17.614Z,58.78
2019-04-03T10:28:48.308Z,56.53
2019-04-03T10:31:18.290Z,57.45
2019-04-03T10:33:47.759Z,57.01
2019-04-03T10:36:18.593Z,55.46
2019-04-03T10:38:49.116Z,55.26
2019-04-03T10:41:19.484Z,55.03
2019-04-03T10:43:49.150Z,54.31
2019-04-03T10:46:21.081Z,54.83
2019-04-03T10:48:50.800Z,54.03
2019-04-03T10:51:20.265Z,53.60
2019-04-03T10:53:51.632Z,53.31
2019-04-03T10:56:21.019Z,53.72
2019-04-03T10:58:51.089Z,52.78
2019-04-03T11:01:20.740Z,52.82
2019-04-03T11:03:50.336Z,52.15
2019-04-03T11:06:20.152Z,53.85
2019-04-03T11:08:50.113Z,53.58
2019-04-03T11:11:19.689Z,55.03
2019-04-03T11:13:49.158Z,53.90
2019-04-03T11:16:18.631Z,54.03
2019-04-03T11:18:58.451Z,54.39
2019-04-03T11:21:20.000Z,52.19
2019-04-03T11:23:49.594Z,51.97
2019-04-03T11:26:23.158Z,50.56
2019-04-03T11:28:50.363Z,51.43
2019-04-03T11:31:27.121Z,50.62
2019-04-03T11:33:51.540Z,50.72
2019-04-03T11:36:21.011Z,50.55
2019-04-03T11:38:50.568Z,50.38
2019-04-03T11:41:22.985Z,49.78
2019-04-03T11:43:51.270Z,49.68
2019-04-03T11:46:20.841Z,49.42
2019-04-03T11:48:50.334Z,49.55
2019-04-03T11:51:20.026Z,49.09
2019-04-03T11:53:49.564Z,50.03
2019-04-03T11:56:19.050Z,50.32
2019-04-03T11:58:49.970Z,51.71
2019-04-03T12:01:19.835Z,50.89
2019-04-03T12:03:51.496Z,50.92
2019-04-03T12:06:21.136Z,50.56
2019-04-03T12:08:50.666Z,50.18
2019-04-03T12:11:21.808Z,50.14
2019-04-03T12:13:51.413Z,49.32
2019-04-03T12:16:23.979Z,49.84
2019-04-03T12:18:52.861Z,48.89
2019-04-03T12:21:22.363Z,48.56
2019-04-03T12:23:51.866Z,48.50
2019-04-03T12:26:21.502Z,47.60
2019-04-03T12:28:51.031Z,48.29
2019-04-03T12:31:20.552Z,47.42
2019-04-03T12:33:56.831Z,48.04
2019-04-03T12:36:21.448Z,48.80
2019-04-03T12:38:51.056Z,48.54
2019-04-03T12:41:22.505Z,48.49
2019-04-03T12:43:52.714Z,48.39
2019-04-03T12:46:24.144Z,48.49
2019-04-03T12:48:53.648Z,48.62
2019-04-03T12:51:23.184Z,48.71
2019-04-03T12:53:52.627Z,49.23
2019-04-03T12:56:24.605Z,49.22
2019-04-03T12:58:53.360Z,48.53
2019-04-03T13:01:23.412Z,47.90
2019-04-03T13:03:54.424Z,47.81
2019-04-03T13:06:24.537Z,47.79
2019-04-03T13:08:53.999Z,47.98
2019-04-03T13:11:23.579Z,48.62
2019-04-03T13:13:53.160Z,48.33
2019-04-03T13:16:22.673Z,48.36
2019-04-03T13:18:52.113Z,48.32
2019-04-03T13:21:21.598Z,47.45
2019-04-03T13:23:51.085Z,47.44
2019-04-03T13:26:24.066Z,47.52
2019-04-03T13:28:52.135Z,46.94
2019-04-03T13:31:21.893Z,47.56
2019-04-03T13:33:51.373Z,47.23
2019-04-03T13:36:23.692Z,47.30
2019-04-03T13:38:52.350Z,47.04
2019-04-03T13:41:21.922Z,47.23
2019-04-03T13:43:53.790Z,46.92
2019-04-03T13:46:22.615Z,46.98
2019-04-03T13:48:52.885Z,47.72
2019-04-03T13:51:22.370Z,47.50
2019-04-03T13:53:53.048Z,46.96
2019-04-03T13:56:24.499Z,46.97
2019-04-03T13:58:54.842Z,46.92
2019-04-03T14:01:27.550Z,47.83
2019-04-03T14:03:55.740Z,48.12
2019-04-03T14:06:25.527Z,48.11
2019-04-03T14:08:55.263Z,47.87
2019-04-03T14:11:24.824Z,48.39
2019-04-03T14:13:54.339Z,48.80
2019-04-03T14:16:23.862Z,48.35
2019-04-03T14:18:53.370Z,48.65
2019-04-03T14:21:23.294Z,48.95
2019-04-03T14:23:53.109Z,49.50
2019-04-03T14:26:22.811Z,49.11
2019-04-03T14:28:52.380Z,48.74
2019-04-03T14:31:33.424Z,48.88
2019-04-03T14:33:53.067Z,48.36
2019-04-03T14:36:22.591Z,49.10
2019-04-03T14:38:52.475Z,49.02
2019-04-03T14:41:21.990Z,49.00
2019-04-03T14:43:51.459Z,48.56
2019-04-03T14:46:21.203Z,48.58
2019-04-03T14:48:51.674Z,48.92
2019-04-03T14:51:21.505Z,48.81
2019-04-03T14:53:52.644Z,49.46
2019-04-03T14:56:22.226Z,49.87
2019-04-03T14:58:51.718Z,50.46
2019-04-03T15:01:21.357Z,52.03
2019-04-03T15:03:50.823Z,50.81
2019-04-03T15:06:20.382Z,51.87
2019-04-03T15:08:50.230Z,51.55
2019-04-03T15:11:21.816Z,52.54
2019-04-03T15:13:51.561Z,52.97
2019-04-03T15:16:21.078Z,53.31
2019-04-03T15:18:50.561Z,54.35
2019-04-03T15:21:20.720Z,53.89
2019-04-03T15:23:51.332Z,53.94
2019-04-03T15:26:22.223Z,55.33
2019-04-03T15:28:52.449Z,56.03
2019-04-03T15:31:23.917Z,56.20
2019-04-03T15:33:55.430Z,56.49
2019-04-03T15:36:24.992Z,57.29
2019-04-03T15:38:58.431Z,57.32
2019-04-03T15:41:28.630Z,56.85
2019-04-03T15:43:58.204Z,57.71
2019-04-03T15:46:29.214Z,58.08
2019-04-03T15:48:59.026Z,58.29
2019-04-03T15:51:28.614Z,58.65
2019-04-03T15:53:59.232Z,59.23
2019-04-03T15:56:29.345Z,59.39
2019-04-03T15:58:59.339Z,59.34
2019-04-03T16:01:28.941Z,58.87
2019-04-03T16:03:59.078Z,59.23
2019-04-03T16:06:29.517Z,59.43
2019-04-03T16:08:59.133Z,58.56
2019-04-03T16:11:29.772Z,59.03
2019-04-03T16:14:00.231Z,59.34
2019-04-03T16:16:29.791Z,58.91
2019-04-03T16:18:59.508Z,58.60
2019-04-03T16:21:30.201Z,58.90
2019-04-03T16:24:00.527Z,58.67
2019-04-03T16:26:30.300Z,58.66
2019-04-03T16:28:59.831Z,58.71
2019-04-03T16:31:29.402Z,58.58
2019-04-03T16:33:58.835Z,58.94
2019-04-03T16:36:28.400Z,59.08
2019-04-03T16:38:59.985Z,58.91
2019-04-03T16:41:29.254Z,59.27
2019-04-03T16:43:58.752Z,59.58
2019-04-03T16:46:28.259Z,59.09
2019-04-03T16:48:58.081Z,59.43
2019-04-03T16:51:29.214Z,59.73
2019-04-03T16:54:00.158Z,59.70
2019-04-03T16:56:30.043Z,59.82
2019-04-03T16:59:00.676Z,60.27
2019-04-03T17:01:30.711Z,60.21
2019-04-03T17:04:03.228Z,60.15
2019-04-03T17:06:31.546Z,60.67
2019-04-03T17:09:01.071Z,60.82
2019-04-03T17:11:30.559Z,61.08
2019-04-03T17:14:00.049Z,61.01
2019-04-03T17:16:29.666Z,61.12
2019-04-03T17:18:59.176Z,60.96
2019-04-03T17:21:36.175Z,61.07
2019-04-03T17:24:00.261Z,61.07
2019-04-03T17:26:29.915Z,61.31
2019-04-03T17:29:03.821Z,61.62
2019-04-03T17:31:30.798Z,61.40
2019-04-03T17:34:02.415Z,62.03
2019-04-03T17:36:32.038Z,61.98
2019-04-03T17:39:04.635Z,61.45
2019-04-03T17:41:32.869Z,61.46
2019-04-03T17:44:02.353Z,60.85
2019-04-03T17:46:31.838Z,61.30
2019-04-03T17:49:01.319Z,61.34
2019-04-03T17:51:33.298Z,61.29
2019-04-03T17:54:02.124Z,61.17
2019-04-03T17:56:31.658Z,61.74
2019-04-03T17:59:01.352Z,61.45
2019-04-03T18:01:30.925Z,61.15
2019-04-03T18:04:00.634Z,60.94
2019-04-03T18:06:30.277Z,60.94
2019-04-03T18:08:59.790Z,61.38
2019-04-03T18:11:29.694Z,61.63
2019-04-03T18:13:59.248Z,61.72
2019-04-03T18:16:29.765Z,61.74
2019-04-03T18:18:59.948Z,61.71
2019-04-03T18:21:29.442Z,62.07
2019-04-03T18:23:59.152Z,62.41
2019-04-03T18:26:30.319Z,62.36
2019-04-03T18:29:00.203Z,62.86
2019-04-03T18:31:29.760Z,62.70
2019-04-03T18:33:59.260Z,62.81
2019-04-03T18:36:31.225Z,63.05
2019-04-03T18:39:00.271Z,63.07
2019-04-03T18:41:29.846Z,63.15
2019-04-03T18:43:59.337Z,63.16
2019-04-03T18:46:32.354Z,63.27
2019-04-03T18:49:01.650Z,63.52
2019-04-03T18:51:31.355Z,63.79
2019-04-03T18:54:00.978Z,63.72
2019-04-03T18:56:32.023Z,63.98
2019-04-03T18:59:01.726Z,64.15
2019-04-03T19:01:32.574Z,63.99
2019-04-03T19:04:02.666Z,63.84
2019-04-03T19:06:32.195Z,63.88
2019-04-03T19:09:09.653Z,63.88
2019-04-03T19:11:34.370Z,64.17
2019-04-03T19:14:04.215Z,63.87
2019-04-03T19:16:43.600Z,63.87
2019-04-03T19:19:08.212Z,64.05
2019-04-03T19:21:36.357Z,63.62
2019-04-03T19:24:06.059Z,63.53
2019-04-03T19:26:35.644Z,63.49
2019-04-03T19:29:05.676Z,63.61
2019-04-03T19:31:35.255Z,63.24
2019-04-03T19:34:04.899Z,63.14
2019-04-03T19:36:34.451Z,63.23
2019-04-03T19:39:06.597Z,63.37
2019-04-03T19:41:36.657Z,63.33
2019-04-03T19:44:06.322Z,63.17
2019-04-03T19:46:35.894Z,63.15
2019-04-03T19:49:05.620Z,63.24
2019-04-03T19:51:35.598Z,63.11
2019-04-03T19:54:06.910Z,63.14
2019-04-03T19:56:36.355Z,62.67
2019-04-03T19:59:05.930Z,62.96
2019-04-03T20:01:38.774Z,63.17
2019-04-03T20:04:06.954Z,63.15
2019-04-03T20:06:36.542Z,62.87
2019-04-03T20:09:09.673Z,62.55
2019-04-03T20:11:39.258Z,62.56
2019-04-03T20:14:11.179Z,62.45
2019-04-03T20:16:39.992Z,62.44
2019-04-03T20:19:09.553Z,62.29
2019-04-03T20:21:39.116Z,62.57
2019-04-03T20:24:08.679Z,62.16
2019-04-03T20:26:38.202Z,62.16
2019-04-03T20:29:07.716Z,62.39
2019-04-03T20:31:37.209Z,62.03
2019-04-03T20:34:06.766Z,62.05
2019-04-03T20:36:36.240Z,62.42
2019-04-03T20:39:09.227Z,62.02
2019-04-03T20:41:38.721Z,62.17
2019-04-03T20:44:08.168Z,62.18
2019-04-03T20:46:37.665Z,62.32
2019-04-03T20:49:07.110Z,62.21
2019-04-03T20:51:38.013Z,62.24
2019-04-03T20:54:07.949Z,62.21
2019-04-03T20:56:37.409Z,62.23
2019-04-03T20:59:06.898Z,62.38
2019-04-03T21:01:36.362Z,61.99
2019-04-03T21:04:05.987Z,62.45
2019-04-03T21:06:37.290Z,62.31
2019-04-03T21:09:07.997Z,62.44
2019-04-03T21:11:37.636Z,62.26
2019-04-03T21:14:07.137Z,62.27
2019-04-03T21:16:36.664Z,62.30
2019-04-03T21:19:06.134Z,62.31
2019-04-03T21:21:35.699Z,62.37
2019-04-03T21:24:05.335Z,62.24
2019-04-03T21:26:37.663Z,62.51
2019-04-03T21:29:07.713Z,62.64
2019-04-03T21:31:37.285Z,62.64
2019-04-03T21:34:06.825Z,62.79
2019-04-03T21:36:38.428Z,62.73
2019-04-03T21:39:08.648Z,62.62
2019-04-03T21:41:38.180Z,62.80
2019-04-03T21:44:07.679Z,62.94
2019-04-03T21:46:39.647Z,62.82
2019-04-03T21:49:09.394Z,63.03
2019-04-03T21:51:38.891Z,62.98
2019-04-03T21:54:08.339Z,63.11
2019-04-03T21:56:37.897Z,63.15
2019-04-03T21:59:10.542Z,63.16
2019-04-03T22:01:38.586Z,63.18
2019-04-03T22:04:08.108Z,63.41
2019-04-03T22:06:37.732Z,63.57
2019-04-03T22:09:13.958Z,63.59
2019-04-03T22:11:43.719Z,63.36
2019-04-03T22:14:13.363Z,63.26
2019-04-03T22:16:42.817Z,63.37
2019-04-03T22:19:12.319Z,63.26
2019-04-03T22:21:41.787Z,63.35
2019-04-03T22:24:11.325Z,63.44
2019-04-03T22:26:41.391Z,63.52
2019-04-03T22:29:10.953Z,63.34
2019-04-03T22:31:40.435Z,63.58
2019-04-03T22:34:09.993Z,63.37
2019-04-03T22:36:39.479Z,63.39
2019-04-03T22:39:09.120Z,63.54
2019-04-03T22:41:38.606Z,63.52
2019-04-03T22:44:08.065Z,63.73
2019-04-03T22:46:37.558Z,63.64
2019-04-03T22:49:07.015Z,63.71
2019-04-03T22:51:37.706Z,63.77
2019-04-03T22:54:07.647Z,63.67
2019-04-03T22:56:37.194Z,63.67
2019-04-03T22:59:06.744Z,63.81
2019-04-03T23:01:36.233Z,63.81
2019-04-03T23:04:05.946Z,63.86
2019-04-03T23:06:35.381Z,63.73
2019-04-03T23:09:07.943Z,63.78
2019-04-03T23:11:37.478Z,63.60
2019-04-03T23:14:07.553Z,63.73
2019-04-03T23:16:37.236Z,63.74
2019-04-03T23:19:06.685Z,63.69
2019-04-03T23:21:36.153Z,63.75
2019-04-03T23:24:05.873Z,63.89
2019-04-03T23:26:35.405Z,63.60
2019-04-03T23:29:05.737Z,63.65
2019-04-03T23:31:35.511Z,63.47
2019-04-03T23:34:05.103Z,63.45
2019-04-03T23:36:34.582Z,63.70
2019-04-03T23:39:06.060Z,63.77
2019-04-03T23:41:36.598Z,63.69
2019-04-03T23:44:06.505Z,63.58
2019-04-03T23:46:35.957Z,63.77
2019-04-03T23:49:05.635Z,63.58
2019-04-03T23:51:35.126Z,63.73
2019-04-03T23:54:04.873Z,63.75
2019-04-03T23:56:34.308Z,64.00
2019-04-03T23:59:03.852Z,64.11
